sensor_id;sensor_type;location;lat;lon;timestamp;temperature;humidity
49032;DHT22;63443;48.366;10.876;2022-11-25T00:02:18;2.30;99.90
49032;DHT22;63443;48.366;10.876;2022-11-25T00:04:44;2.20;99.90
49032;DHT22;63443;48.366;10.876;2022-11-25T00:07:10;2.30;99.90
49032;DHT22;63443;48.366;10.876;2022-11-25T00:09:35;2.30;99.90
49032;DHT22;63443;48.366;10.876;2022-11-25T00:12:01;2.20;99.90
49032;DHT22;63443;48.366;10.876;2022-11-25T00:14:26;2.10;99.90
49032;DHT22;63443;48.366;10.876;2022-11-25T00:16:52;2.00;99.90
49032;DHT22;63443;48.366;10.876;2022-11-25T00:19:18;2.00;99.90
49032;DHT22;63443;48.366;10.876;2022-11-25T00:21:43;2.10;99.90
49032;DHT22;63443;48.366;10.876;2022-11-25T00:24:13;2.10;99.90
49032;DHT22;63443;48.366;10.876;2022-11-25T00:26:39;2.10;99.90
49032;DHT22;63443;48.366;10.876;2022-11-25T00:29:06;2.10;99.90
49032;DHT22;63443;48.366;10.876;2022-11-25T00:31:35;1.90;99.90
49032;DHT22;63443;48.366;10.876;2022-11-25T00:34:01;1.80;99.90
49032;DHT22;63443;48.366;10.876;2022-11-25T00:36:30;1.80;99.90
49032;DHT22;63443;48.366;10.876;2022-11-25T00:38:58;1.90;99.90
49032;DHT22;63443;48.366;10.876;2022-11-25T00:41:25;1.70;99.90
49032;DHT22;63443;48.366;10.876;2022-11-25T00:44:11;1.70;99.90
49032;DHT22;63443;48.366;10.876;2022-11-25T00:46:56;1.70;99.90
49032;DHT22;63443;48.366;10.876;2022-11-25T00:49:22;1.70;99.90
49032;DHT22;63443;48.366;10.876;2022-11-25T00:51:47;1.60;99.90
49032;DHT22;63443;48.366;10.876;2022-11-25T00:54:13;1.70;99.90
49032;DHT22;63443;48.366;10.876;2022-11-25T00:56:39;1.70;99.90
49032;DHT22;63443;48.366;10.876;2022-11-25T00:59:06;1.70;99.90
49032;DHT22;63443;48.366;10.876;2022-11-25T01:01:32;1.80;99.90
49032;DHT22;63443;48.366;10.876;2022-11-25T01:03:57;1.80;99.90
49032;DHT22;63443;48.366;10.876;2022-11-25T01:06:24;1.70;99.90
49032;DHT22;63443;48.366;10.876;2022-11-25T01:08:50;1.70;99.90
49032;DHT22;63443;48.366;10.876;2022-11-25T01:11:18;1.60;99.90
49032;DHT22;63443;48.366;10.876;2022-11-25T01:13:44;1.60;99.90
49032;DHT22;63443;48.366;10.876;2022-11-25T01:16:12;1.60;99.90
49032;DHT22;63443;48.366;10.876;2022-11-25T01:18:38;1.70;99.90
49032;DHT22;63443;48.366;10.876;2022-11-25T01:21:16;1.60;99.90
49032;DHT22;63443;48.366;10.876;2022-11-25T01:23:42;1.60;99.90
49032;DHT22;63443;48.366;10.876;2022-11-25T01:26:11;1.70;99.90
49032;DHT22;63443;48.366;10.876;2022-11-25T01:28:37;1.80;99.90
49032;DHT22;63443;48.366;10.876;2022-11-25T01:31:10;1.70;99.90
49032;DHT22;63443;48.366;10.876;2022-11-25T01:33:36;1.90;99.90
49032;DHT22;63443;48.366;10.876;2022-11-25T01:36:08;1.80;99.90
49032;DHT22;63443;48.366;10.876;2022-11-25T01:38:35;1.80;99.90
49032;DHT22;63443;48.366;10.876;2022-11-25T01:41:01;1.90;99.90
49032;DHT22;63443;48.366;10.876;2022-11-25T01:43:27;1.90;99.90
49032;DHT22;63443;48.366;10.876;2022-11-25T01:46:26;1.90;99.90
49032;DHT22;63443;48.366;10.876;2022-11-25T01:49:01;1.90;99.90
49032;DHT22;63443;48.366;10.876;2022-11-25T01:51:39;2.00;99.90
49032;DHT22;63443;48.366;10.876;2022-11-25T01:54:06;2.00;99.90
49032;DHT22;63443;48.366;10.876;2022-11-25T01:56:36;2.00;99.90
49032;DHT22;63443;48.366;10.876;2022-11-25T01:59:03;1.90;99.90
49032;DHT22;63443;48.366;10.876;2022-11-25T02:01:29;1.90;99.90
49032;DHT22;63443;48.366;10.876;2022-11-25T02:03:56;2.00;99.90
49032;DHT22;63443;48.366;10.876;2022-11-25T02:06:25;1.90;99.90
49032;DHT22;63443;48.366;10.876;2022-11-25T02:09:02;2.00;99.90
49032;DHT22;63443;48.366;10.876;2022-11-25T02:11:29;1.90;99.90
49032;DHT22;63443;48.366;10.876;2022-11-25T02:13:57;1.90;99.90
49032;DHT22;63443;48.366;10.876;2022-11-25T02:16:23;1.90;99.90
49032;DHT22;63443;48.366;10.876;2022-11-25T02:18:49;1.90;99.90
49032;DHT22;63443;48.366;10.876;2022-11-25T02:21:19;2.00;99.90
49032;DHT22;63443;48.366;10.876;2022-11-25T02:24:13;1.90;99.90
49032;DHT22;63443;48.366;10.876;2022-11-25T02:26:41;1.90;99.90
49032;DHT22;63443;48.366;10.876;2022-11-25T02:29:06;1.90;99.90
49032;DHT22;63443;48.366;10.876;2022-11-25T02:31:32;1.90;99.90
49032;DHT22;63443;48.366;10.876;2022-11-25T02:33:58;2.00;99.90
49032;DHT22;63443;48.366;10.876;2022-11-25T02:36:23;2.10;99.90
49032;DHT22;63443;48.366;10.876;2022-11-25T02:38:50;2.20;99.90
49032;DHT22;63443;48.366;10.876;2022-11-25T02:43:51;2.20;99.90
49032;DHT22;63443;48.366;10.876;2022-11-25T02:46:20;2.10;99.90
49032;DHT22;63443;48.366;10.876;2022-11-25T02:48:46;2.10;99.90
49032;DHT22;63443;48.366;10.876;2022-11-25T02:51:15;1.90;99.90
49032;DHT22;63443;48.366;10.876;2022-11-25T02:53:41;1.90;99.90
49032;DHT22;63443;48.366;10.876;2022-11-25T02:56:08;1.90;99.90
49032;DHT22;63443;48.366;10.876;2022-11-25T02:58:35;1.90;99.90
49032;DHT22;63443;48.366;10.876;2022-11-25T03:01:00;1.80;99.90
49032;DHT22;63443;48.366;10.876;2022-11-25T03:03:26;1.80;99.90
49032;DHT22;63443;48.366;10.876;2022-11-25T03:05:51;1.80;99.90
49032;DHT22;63443;48.366;10.876;2022-11-25T03:08:17;1.70;99.90
49032;DHT22;63443;48.366;10.876;2022-11-25T03:10:42;1.70;99.90
49032;DHT22;63443;48.366;10.876;2022-11-25T03:13:09;1.60;99.90
49032;DHT22;63443;48.366;10.876;2022-11-25T03:15:35;1.60;99.90
49032;DHT22;63443;48.366;10.876;2022-11-25T03:18:02;1.60;99.90
49032;DHT22;63443;48.366;10.876;2022-11-25T03:20:27;1.50;99.90
49032;DHT22;63443;48.366;10.876;2022-11-25T03:22:53;1.60;99.90
49032;DHT22;63443;48.366;10.876;2022-11-25T03:25:19;1.60;99.90
49032;DHT22;63443;48.366;10.876;2022-11-25T03:27:45;1.50;99.90
49032;DHT22;63443;48.366;10.876;2022-11-25T03:30:17;1.50;99.90
49032;DHT22;63443;48.366;10.876;2022-11-25T03:32:43;1.40;99.90
49032;DHT22;63443;48.366;10.876;2022-11-25T03:35:09;1.40;99.90
49032;DHT22;63443;48.366;10.876;2022-11-25T03:37:36;1.30;99.90
49032;DHT22;63443;48.366;10.876;2022-11-25T03:40:03;1.30;99.90
49032;DHT22;63443;48.366;10.876;2022-11-25T03:42:29;1.30;99.90
49032;DHT22;63443;48.366;10.876;2022-11-25T03:44:55;1.40;99.90
49032;DHT22;63443;48.366;10.876;2022-11-25T03:47:21;1.40;99.90
49032;DHT22;63443;48.366;10.876;2022-11-25T03:49:46;1.40;99.90
49032;DHT22;63443;48.366;10.876;2022-11-25T03:52:12;1.40;99.90
49032;DHT22;63443;48.366;10.876;2022-11-25T03:54:38;1.40;99.90
49032;DHT22;63443;48.366;10.876;2022-11-25T03:57:04;1.30;99.90
49032;DHT22;63443;48.366;10.876;2022-11-25T03:59:29;1.30;99.90
49032;DHT22;63443;48.366;10.876;2022-11-25T04:01:55;1.30;99.90
49032;DHT22;63443;48.366;10.876;2022-11-25T04:04:20;1.30;99.90
49032;DHT22;63443;48.366;10.876;2022-11-25T04:06:46;1.30;99.90
49032;DHT22;63443;48.366;10.876;2022-11-25T04:09:12;1.20;99.90
49032;DHT22;63443;48.366;10.876;2022-11-25T04:11:37;1.20;99.90
49032;DHT22;63443;48.366;10.876;2022-11-25T04:14:21;1.20;99.90
49032;DHT22;63443;48.366;10.876;2022-11-25T04:16:47;1.20;99.90
49032;DHT22;63443;48.366;10.876;2022-11-25T04:19:12;1.20;99.90
49032;DHT22;63443;48.366;10.876;2022-11-25T04:21:38;1.20;99.90
49032;DHT22;63443;48.366;10.876;2022-11-25T04:24:04;1.30;99.90
49032;DHT22;63443;48.366;10.876;2022-11-25T04:26:29;1.30;99.90
49032;DHT22;63443;48.366;10.876;2022-11-25T04:28:55;1.40;99.90
49032;DHT22;63443;48.366;10.876;2022-11-25T04:31:21;1.40;99.90
49032;DHT22;63443;48.366;10.876;2022-11-25T04:33:46;1.40;99.90
49032;DHT22;63443;48.366;10.876;2022-11-25T04:36:12;1.40;99.90
49032;DHT22;63443;48.366;10.876;2022-11-25T04:38:37;1.50;99.90
49032;DHT22;63443;48.366;10.876;2022-11-25T04:41:03;1.50;99.90
49032;DHT22;63443;48.366;10.876;2022-11-25T04:43:28;1.40;99.90
49032;DHT22;63443;48.366;10.876;2022-11-25T04:45:54;1.50;99.90
49032;DHT22;63443;48.366;10.876;2022-11-25T04:48:20;1.50;99.90
49032;DHT22;63443;48.366;10.876;2022-11-25T04:50:46;1.50;99.90
49032;DHT22;63443;48.366;10.876;2022-11-25T04:53:11;1.50;99.90
49032;DHT22;63443;48.366;10.876;2022-11-25T04:55:37;1.60;99.90
49032;DHT22;63443;48.366;10.876;2022-11-25T04:58:02;1.60;99.90
49032;DHT22;63443;48.366;10.876;2022-11-25T05:00:28;1.70;99.90
49032;DHT22;63443;48.366;10.876;2022-11-25T05:02:54;1.80;99.90
49032;DHT22;63443;48.366;10.876;2022-11-25T05:05:20;1.80;99.90
49032;DHT22;63443;48.366;10.876;2022-11-25T05:07:45;1.90;99.90
49032;DHT22;63443;48.366;10.876;2022-11-25T05:10:11;1.80;99.90
49032;DHT22;63443;48.366;10.876;2022-11-25T05:12:37;1.70;99.90
49032;DHT22;63443;48.366;10.876;2022-11-25T05:15:03;1.70;99.90
49032;DHT22;63443;48.366;10.876;2022-11-25T05:17:30;1.60;99.90
49032;DHT22;63443;48.366;10.876;2022-11-25T05:19:56;1.60;99.90
49032;DHT22;63443;48.366;10.876;2022-11-25T05:22:27;1.50;99.90
49032;DHT22;63443;48.366;10.876;2022-11-25T05:24:53;1.50;99.90
49032;DHT22;63443;48.366;10.876;2022-11-25T05:27:20;1.50;99.90
49032;DHT22;63443;48.366;10.876;2022-11-25T05:29:45;1.50;99.90
49032;DHT22;63443;48.366;10.876;2022-11-25T05:32:11;1.50;99.90
49032;DHT22;63443;48.366;10.876;2022-11-25T05:34:37;1.60;99.90
49032;DHT22;63443;48.366;10.876;2022-11-25T05:37:03;1.60;99.90
49032;DHT22;63443;48.366;10.876;2022-11-25T05:39:29;1.60;99.90
49032;DHT22;63443;48.366;10.876;2022-11-25T05:41:55;1.50;99.90
49032;DHT22;63443;48.366;10.876;2022-11-25T05:44:20;1.50;99.90
49032;DHT22;63443;48.366;10.876;2022-11-25T05:46:46;1.50;99.90
49032;DHT22;63443;48.366;10.876;2022-11-25T05:49:13;1.60;99.90
49032;DHT22;63443;48.366;10.876;2022-11-25T05:51:39;1.60;99.90
49032;DHT22;63443;48.366;10.876;2022-11-25T05:54:05;1.60;99.90
49032;DHT22;63443;48.366;10.876;2022-11-25T05:56:30;1.70;99.90
49032;DHT22;63443;48.366;10.876;2022-11-25T05:58:58;1.70;99.90
49032;DHT22;63443;48.366;10.876;2022-11-25T06:01:25;1.70;99.90
49032;DHT22;63443;48.366;10.876;2022-11-25T06:03:50;1.70;99.90
49032;DHT22;63443;48.366;10.876;2022-11-25T06:06:16;1.80;99.90
49032;DHT22;63443;48.366;10.876;2022-11-25T06:08:42;1.70;99.90
49032;DHT22;63443;48.366;10.876;2022-11-25T06:11:10;1.70;99.90
49032;DHT22;63443;48.366;10.876;2022-11-25T06:13:37;1.70;99.90
49032;DHT22;63443;48.366;10.876;2022-11-25T06:16:10;1.70;99.90
49032;DHT22;63443;48.366;10.876;2022-11-25T06:18:36;1.70;99.90
49032;DHT22;63443;48.366;10.876;2022-11-25T06:21:03;1.80;99.90
49032;DHT22;63443;48.366;10.876;2022-11-25T06:23:29;1.70;99.90
49032;DHT22;63443;48.366;10.876;2022-11-25T06:26:02;1.80;99.90
49032;DHT22;63443;48.366;10.876;2022-11-25T06:28:28;1.80;99.90
49032;DHT22;63443;48.366;10.876;2022-11-25T06:30:53;1.80;99.90
49032;DHT22;63443;48.366;10.876;2022-11-25T06:33:19;1.90;99.90
49032;DHT22;63443;48.366;10.876;2022-11-25T06:35:45;1.80;99.90
49032;DHT22;63443;48.366;10.876;2022-11-25T06:38:10;1.90;99.90
49032;DHT22;63443;48.366;10.876;2022-11-25T06:40:36;1.90;99.90
49032;DHT22;63443;48.366;10.876;2022-11-25T06:43:03;1.80;99.90
49032;DHT22;63443;48.366;10.876;2022-11-25T06:45:28;1.80;99.90
49032;DHT22;63443;48.366;10.876;2022-11-25T06:47:54;1.70;99.90
49032;DHT22;63443;48.366;10.876;2022-11-25T06:50:19;1.70;99.90
49032;DHT22;63443;48.366;10.876;2022-11-25T06:52:45;1.70;99.90
49032;DHT22;63443;48.366;10.876;2022-11-25T06:55:10;1.70;99.90
49032;DHT22;63443;48.366;10.876;2022-11-25T06:57:36;1.70;99.90
49032;DHT22;63443;48.366;10.876;2022-11-25T07:00:03;1.80;99.90
49032;DHT22;63443;48.366;10.876;2022-11-25T07:02:28;1.80;99.90
49032;DHT22;63443;48.366;10.876;2022-11-25T07:04:54;1.80;99.90
49032;DHT22;63443;48.366;10.876;2022-11-25T07:07:19;1.80;99.90
49032;DHT22;63443;48.366;10.876;2022-11-25T07:09:45;1.90;99.90
49032;DHT22;63443;48.366;10.876;2022-11-25T07:12:11;1.90;99.90
49032;DHT22;63443;48.366;10.876;2022-11-25T07:14:37;1.90;99.90
49032;DHT22;63443;48.366;10.876;2022-11-25T07:17:03;1.90;99.90
49032;DHT22;63443;48.366;10.876;2022-11-25T07:19:28;2.00;99.90
49032;DHT22;63443;48.366;10.876;2022-11-25T07:22:00;2.10;99.90
49032;DHT22;63443;48.366;10.876;2022-11-25T07:24:25;2.10;99.90
49032;DHT22;63443;48.366;10.876;2022-11-25T07:26:51;2.20;99.90
49032;DHT22;63443;48.366;10.876;2022-11-25T07:29:16;2.10;99.90
49032;DHT22;63443;48.366;10.876;2022-11-25T07:31:44;2.20;99.90
49032;DHT22;63443;48.366;10.876;2022-11-25T07:34:18;2.30;99.90
49032;DHT22;63443;48.366;10.876;2022-11-25T07:36:46;2.40;99.90
49032;DHT22;63443;48.366;10.876;2022-11-25T07:39:18;2.60;99.90
49032;DHT22;63443;48.366;10.876;2022-11-25T07:41:44;2.70;99.90
49032;DHT22;63443;48.366;10.876;2022-11-25T07:44:14;2.80;99.90
49032;DHT22;63443;48.366;10.876;2022-11-25T07:46:42;2.80;99.90
49032;DHT22;63443;48.366;10.876;2022-11-25T07:49:11;3.00;99.90
49032;DHT22;63443;48.366;10.876;2022-11-25T07:51:40;3.10;99.90
49032;DHT22;63443;48.366;10.876;2022-11-25T07:54:08;3.00;99.90
49032;DHT22;63443;48.366;10.876;2022-11-25T07:56:35;3.10;99.90
49032;DHT22;63443;48.366;10.876;2022-11-25T07:59:01;3.10;99.90
49032;DHT22;63443;48.366;10.876;2022-11-25T08:01:27;3.10;99.90
49032;DHT22;63443;48.366;10.876;2022-11-25T08:03:53;3.20;99.90
49032;DHT22;63443;48.366;10.876;2022-11-25T08:06:21;3.10;99.90
49032;DHT22;63443;48.366;10.876;2022-11-25T08:08:47;3.00;99.90
49032;DHT22;63443;48.366;10.876;2022-11-25T08:11:18;3.10;99.90
49032;DHT22;63443;48.366;10.876;2022-11-25T08:13:45;3.20;99.90
49032;DHT22;63443;48.366;10.876;2022-11-25T08:16:12;3.20;99.90
49032;DHT22;63443;48.366;10.876;2022-11-25T08:18:38;3.20;99.90
49032;DHT22;63443;48.366;10.876;2022-11-25T08:21:08;3.30;99.90
49032;DHT22;63443;48.366;10.876;2022-11-25T08:23:36;3.50;99.90
49032;DHT22;63443;48.366;10.876;2022-11-25T08:26:03;3.50;99.90
49032;DHT22;63443;48.366;10.876;2022-11-25T08:28:29;3.60;99.90
49032;DHT22;63443;48.366;10.876;2022-11-25T08:31:04;3.40;99.90
49032;DHT22;63443;48.366;10.876;2022-11-25T08:33:31;3.30;99.90
49032;DHT22;63443;48.366;10.876;2022-11-25T08:35:56;3.30;99.90
49032;DHT22;63443;48.366;10.876;2022-11-25T08:38:22;3.40;99.90
49032;DHT22;63443;48.366;10.876;2022-11-25T08:40:48;3.60;99.90
49032;DHT22;63443;48.366;10.876;2022-11-25T08:43:13;3.80;99.90
49032;DHT22;63443;48.366;10.876;2022-11-25T08:45:39;3.90;99.90
49032;DHT22;63443;48.366;10.876;2022-11-25T08:48:05;4.10;99.90
49032;DHT22;63443;48.366;10.876;2022-11-25T08:50:31;4.20;99.90
49032;DHT22;63443;48.366;10.876;2022-11-25T08:52:57;4.30;99.90
49032;DHT22;63443;48.366;10.876;2022-11-25T08:55:24;4.40;99.90
49032;DHT22;63443;48.366;10.876;2022-11-25T08:57:55;4.80;99.90
49032;DHT22;63443;48.366;10.876;2022-11-25T09:00:21;4.90;99.90
49032;DHT22;63443;48.366;10.876;2022-11-25T09:02:47;4.90;99.90
49032;DHT22;63443;48.366;10.876;2022-11-25T09:05:15;5.10;99.90
49032;DHT22;63443;48.366;10.876;2022-11-25T09:07:41;5.20;99.90
49032;DHT22;63443;48.366;10.876;2022-11-25T09:10:11;5.40;99.90
49032;DHT22;63443;48.366;10.876;2022-11-25T09:12:37;5.50;99.90
49032;DHT22;63443;48.366;10.876;2022-11-25T09:15:04;5.50;99.90
49032;DHT22;63443;48.366;10.876;2022-11-25T09:17:29;5.70;99.90
49032;DHT22;63443;48.366;10.876;2022-11-25T09:19:55;5.80;99.90
49032;DHT22;63443;48.366;10.876;2022-11-25T09:22:21;5.60;99.90
49032;DHT22;63443;48.366;10.876;2022-11-25T09:24:47;5.60;99.90
49032;DHT22;63443;48.366;10.876;2022-11-25T09:27:12;5.80;99.90
49032;DHT22;63443;48.366;10.876;2022-11-25T09:29:38;5.80;99.90
49032;DHT22;63443;48.366;10.876;2022-11-25T09:32:03;5.90;99.90
49032;DHT22;63443;48.366;10.876;2022-11-25T09:34:29;6.00;99.90
49032;DHT22;63443;48.366;10.876;2022-11-25T09:36:55;6.10;99.90
49032;DHT22;63443;48.366;10.876;2022-11-25T09:39:20;6.20;99.90
49032;DHT22;63443;48.366;10.876;2022-11-25T09:45:26;6.60;99.90
49032;DHT22;63443;48.366;10.876;2022-11-25T09:56:13;12.90;84.30
49032;DHT22;63443;48.366;10.876;2022-11-25T09:58:49;14.20;78.20
49032;DHT22;63443;48.366;10.876;2022-11-25T10:01:19;15.10;72.40
49032;DHT22;63443;48.366;10.876;2022-11-25T10:03:50;15.20;70.40
49032;DHT22;63443;48.366;10.876;2022-11-25T10:08:50;16.20;65.60
49032;DHT22;63443;48.366;10.876;2022-11-25T10:14:07;16.80;62.80
49032;DHT22;63443;48.366;10.876;2022-11-25T10:19:56;17.80;59.70
49032;DHT22;63443;48.366;10.876;2022-11-25T10:22:26;18.00;58.50
49032;DHT22;63443;48.366;10.876;2022-11-25T10:25:13;18.80;58.40
49032;DHT22;63443;48.366;10.876;2022-11-25T10:27:54;19.00;57.20
49032;DHT22;63443;48.366;10.876;2022-11-25T10:30:34;19.00;56.90
49032;DHT22;63443;48.366;10.876;2022-11-25T10:33:17;19.80;55.00
49032;DHT22;63443;48.366;10.876;2022-11-25T10:36:06;20.20;54.80
49032;DHT22;63443;48.366;10.876;2022-11-25T10:39:09;20.20;53.40
49032;DHT22;63443;48.366;10.876;2022-11-25T10:42:00;18.40;54.70
49032;DHT22;63443;48.366;10.876;2022-11-25T10:44:36;16.00;61.10
49032;DHT22;63443;48.366;10.876;2022-11-25T10:52:14;15.70;62.10
49032;DHT22;63443;48.366;10.876;2022-11-25T10:55:07;13.80;68.00
49032;DHT22;63443;48.366;10.876;2022-11-25T10:57:33;14.20;68.70
49032;DHT22;63443;48.366;10.876;2022-11-25T10:59:59;15.30;67.00
49032;DHT22;63443;48.366;10.876;2022-11-25T11:02:28;17.80;61.40
49032;DHT22;63443;48.366;10.876;2022-11-25T11:07:40;21.20;52.80
49032;DHT22;63443;48.366;10.876;2022-11-25T11:10:19;20.20;52.80
49032;DHT22;63443;48.366;10.876;2022-11-25T11:13:24;18.60;57.00
49032;DHT22;63443;48.366;10.876;2022-11-25T11:15:52;18.70;57.00
49032;DHT22;63443;48.366;10.876;2022-11-25T11:20:51;19.60;54.60
49032;DHT22;63443;48.366;10.876;2022-11-25T11:23:17;19.80;54.40
49032;DHT22;63443;48.366;10.876;2022-11-25T11:25:57;20.90;52.10
49032;DHT22;63443;48.366;10.876;2022-11-25T11:28:38;21.10;51.40
49032;DHT22;63443;48.366;10.876;2022-11-25T11:31:16;20.60;52.10
49032;DHT22;63443;48.366;10.876;2022-11-25T11:38:55;19.00;56.00
49032;DHT22;63443;48.366;10.876;2022-11-25T11:44:29;19.00;54.40
49032;DHT22;63443;48.366;10.876;2022-11-25T11:52:10;12.70;71.90
49032;DHT22;63443;48.366;10.876;2022-11-25T11:54:45;12.00;76.00
49032;DHT22;63443;48.366;10.876;2022-11-25T12:00:08;11.20;83.00
49032;DHT22;63443;48.366;10.876;2022-11-25T12:05:38;11.60;84.60
49032;DHT22;63443;48.366;10.876;2022-11-25T12:08:13;11.60;85.50
49032;DHT22;63443;48.366;10.876;2022-11-25T12:13:18;12.30;85.00
49032;DHT22;63443;48.366;10.876;2022-11-25T12:15:55;14.10;78.80
49032;DHT22;63443;48.366;10.876;2022-11-25T12:21:36;18.20;64.00
49032;DHT22;63443;48.366;10.876;2022-11-25T12:29:23;21.60;55.20
49032;DHT22;63443;48.366;10.876;2022-11-25T12:32:25;20.40;55.40
49032;DHT22;63443;48.366;10.876;2022-11-25T12:34:52;19.00;58.10
49032;DHT22;63443;48.366;10.876;2022-11-25T12:37:31;17.20;64.00
49032;DHT22;63443;48.366;10.876;2022-11-25T12:42:39;16.70;64.40
49032;DHT22;63443;48.366;10.876;2022-11-25T12:45:23;16.20;65.90
49032;DHT22;63443;48.366;10.876;2022-11-25T12:47:50;14.80;69.50
49032;DHT22;63443;48.366;10.876;2022-11-25T12:50:27;13.70;74.10
49032;DHT22;63443;48.366;10.876;2022-11-25T12:55:29;12.70;80.70
49032;DHT22;63443;48.366;10.876;2022-11-25T12:58:27;12.40;82.80
49032;DHT22;63443;48.366;10.876;2022-11-25T13:01:02;11.90;85.90
49032;DHT22;63443;48.366;10.876;2022-11-25T13:06:59;11.40;90.70
49032;DHT22;63443;48.366;10.876;2022-11-25T13:15:24;10.30;96.10
49032;DHT22;63443;48.366;10.876;2022-11-25T13:17:55;10.20;97.10
49032;DHT22;63443;48.366;10.876;2022-11-25T13:23:37;9.80;99.40
49032;DHT22;63443;48.366;10.876;2022-11-25T13:25:44;9.40;99.90
49032;DHT22;63443;48.366;10.876;2022-11-25T13:28:33;9.30;99.90
49032;DHT22;63443;48.366;10.876;2022-11-25T13:36:17;9.30;99.90
49032;DHT22;63443;48.366;10.876;2022-11-25T13:44:17;8.90;99.90
49032;DHT22;63443;48.366;10.876;2022-11-25T13:46:51;8.70;99.90
49032;DHT22;63443;48.366;10.876;2022-11-25T13:49:29;8.60;99.90
49032;DHT22;63443;48.366;10.876;2022-11-25T13:54:44;8.40;99.90
49032;DHT22;63443;48.366;10.876;2022-11-25T13:59:54;8.20;99.90
49032;DHT22;63443;48.366;10.876;2022-11-25T14:07:50;8.20;99.90
49032;DHT22;63443;48.366;10.876;2022-11-25T14:10:44;8.20;99.90
49032;DHT22;63443;48.366;10.876;2022-11-25T14:26:59;7.90;99.90
49032;DHT22;63443;48.366;10.876;2022-11-25T14:32:19;7.90;99.90
49032;DHT22;63443;48.366;10.876;2022-11-25T14:34:46;7.90;99.90
49032;DHT22;63443;48.366;10.876;2022-11-25T14:40:51;7.80;99.90
49032;DHT22;63443;48.366;10.876;2022-11-25T14:43:22;7.80;99.90
49032;DHT22;63443;48.366;10.876;2022-11-25T14:46:10;7.90;99.90
49032;DHT22;63443;48.366;10.876;2022-11-25T14:48:36;7.80;99.90
49032;DHT22;63443;48.366;10.876;2022-11-25T14:51:08;7.70;99.90
49032;DHT22;63443;48.366;10.876;2022-11-25T14:53:48;7.60;99.90
49032;DHT22;63443;48.366;10.876;2022-11-25T14:56:20;7.60;99.90
49032;DHT22;63443;48.366;10.876;2022-11-25T14:58:49;7.50;99.90
49032;DHT22;63443;48.366;10.876;2022-11-25T15:01:25;7.50;99.90
49032;DHT22;63443;48.366;10.876;2022-11-25T15:04:01;7.40;99.90
49032;DHT22;63443;48.366;10.876;2022-11-25T15:06:41;7.40;99.90
49032;DHT22;63443;48.366;10.876;2022-11-25T15:09:28;7.40;99.90
49032;DHT22;63443;48.366;10.876;2022-11-25T15:12:11;7.30;99.90
49032;DHT22;63443;48.366;10.876;2022-11-25T15:14:42;7.30;99.90
49032;DHT22;63443;48.366;10.876;2022-11-25T15:17:29;7.20;99.90
49032;DHT22;63443;48.366;10.876;2022-11-25T15:19:58;7.20;99.90
49032;DHT22;63443;48.366;10.876;2022-11-25T15:22:25;7.10;99.90
49032;DHT22;63443;48.366;10.876;2022-11-25T15:24:54;7.10;99.90
49032;DHT22;63443;48.366;10.876;2022-11-25T15:27:24;7.10;99.90
49032;DHT22;63443;48.366;10.876;2022-11-25T15:29:52;7.00;99.90
49032;DHT22;63443;48.366;10.876;2022-11-25T15:32:23;7.00;99.90
49032;DHT22;63443;48.366;10.876;2022-11-25T15:34:51;7.00;99.90
49032;DHT22;63443;48.366;10.876;2022-11-25T15:37:17;6.90;99.90
49032;DHT22;63443;48.366;10.876;2022-11-25T15:39:43;6.90;99.90
49032;DHT22;63443;48.366;10.876;2022-11-25T15:42:21;6.90;99.90
49032;DHT22;63443;48.366;10.876;2022-11-25T15:44:55;6.80;99.90
49032;DHT22;63443;48.366;10.876;2022-11-25T15:47:30;6.80;99.90
49032;DHT22;63443;48.366;10.876;2022-11-25T15:50:16;6.80;99.90
49032;DHT22;63443;48.366;10.876;2022-11-25T15:52:46;6.80;99.90
49032;DHT22;63443;48.366;10.876;2022-11-25T15:55:33;6.70;99.90
49032;DHT22;63443;48.366;10.876;2022-11-25T16:00:27;6.70;99.90
49032;DHT22;63443;48.366;10.876;2022-11-25T16:02:55;6.70;99.90
49032;DHT22;63443;48.366;10.876;2022-11-25T16:15:50;6.60;99.90
49032;DHT22;63443;48.366;10.876;2022-11-25T16:18:19;6.60;99.90
49032;DHT22;63443;48.366;10.876;2022-11-25T16:20:47;6.60;99.90
49032;DHT22;63443;48.366;10.876;2022-11-25T16:23:15;6.60;99.90
49032;DHT22;63443;48.366;10.876;2022-11-25T16:25:48;6.50;99.90
49032;DHT22;63443;48.366;10.876;2022-11-25T16:28:18;6.50;99.90
49032;DHT22;63443;48.366;10.876;2022-11-25T16:30:45;6.50;99.90
49032;DHT22;63443;48.366;10.876;2022-11-25T16:33:11;6.60;99.90
49032;DHT22;63443;48.366;10.876;2022-11-25T16:35:36;6.60;99.90
49032;DHT22;63443;48.366;10.876;2022-11-25T16:38:02;6.50;99.90
49032;DHT22;63443;48.366;10.876;2022-11-25T16:40:28;6.50;99.90
49032;DHT22;63443;48.366;10.876;2022-11-25T16:42:54;6.50;99.90
49032;DHT22;63443;48.366;10.876;2022-11-25T16:45:25;6.50;99.90
49032;DHT22;63443;48.366;10.876;2022-11-25T16:47:52;6.50;99.90
49032;DHT22;63443;48.366;10.876;2022-11-25T16:50:18;6.40;99.90
49032;DHT22;63443;48.366;10.876;2022-11-25T16:52:44;6.40;99.90
49032;DHT22;63443;48.366;10.876;2022-11-25T16:55:10;6.40;99.90
49032;DHT22;63443;48.366;10.876;2022-11-25T16:57:36;6.40;99.90
49032;DHT22;63443;48.366;10.876;2022-11-25T17:00:06;6.40;99.90
49032;DHT22;63443;48.366;10.876;2022-11-25T17:02:33;6.40;99.90
49032;DHT22;63443;48.366;10.876;2022-11-25T17:07:37;6.40;99.90
49032;DHT22;63443;48.366;10.876;2022-11-25T17:10:03;6.40;99.90
49032;DHT22;63443;48.366;10.876;2022-11-25T17:12:31;6.30;99.90
49032;DHT22;63443;48.366;10.876;2022-11-25T17:14:58;6.30;99.90
49032;DHT22;63443;48.366;10.876;2022-11-25T17:17:24;6.40;99.90
49032;DHT22;63443;48.366;10.876;2022-11-25T17:19:51;6.30;99.90
49032;DHT22;63443;48.366;10.876;2022-11-25T17:22:20;6.30;99.90
49032;DHT22;63443;48.366;10.876;2022-11-25T17:24:46;6.30;99.90
49032;DHT22;63443;48.366;10.876;2022-11-25T17:27:20;6.20;99.90
49032;DHT22;63443;48.366;10.876;2022-11-25T17:29:46;6.20;99.90
49032;DHT22;63443;48.366;10.876;2022-11-25T17:32:12;6.10;99.90
49032;DHT22;63443;48.366;10.876;2022-11-25T17:34:39;6.10;99.90
49032;DHT22;63443;48.366;10.876;2022-11-25T17:37:21;6.10;99.90
49032;DHT22;63443;48.366;10.876;2022-11-25T17:39:48;6.00;99.90
49032;DHT22;63443;48.366;10.876;2022-11-25T17:42:16;6.00;99.90
49032;DHT22;63443;48.366;10.876;2022-11-25T17:44:42;5.90;99.90
49032;DHT22;63443;48.366;10.876;2022-11-25T17:47:12;5.70;99.90
49032;DHT22;63443;48.366;10.876;2022-11-25T17:49:38;5.60;99.90
49032;DHT22;63443;48.366;10.876;2022-11-25T17:52:03;5.50;99.90
49032;DHT22;63443;48.366;10.876;2022-11-25T17:54:30;5.50;99.90
49032;DHT22;63443;48.366;10.876;2022-11-25T17:56:55;5.50;99.90
49032;DHT22;63443;48.366;10.876;2022-11-25T17:59:22;5.50;99.90